createdAt,value
2018-09-11T00:00:54.947Z,4.10
2018-09-11T00:03:23.424Z,4.30
2018-09-11T00:05:51.481Z,4.67
2018-09-11T00:08:19.564Z,4.33
2018-09-11T00:10:47.659Z,4.00
2018-09-11T00:13:15.768Z,4.47
2018-09-11T00:15:43.921Z,3.83
2018-09-11T00:18:12.055Z,4.75
2018-09-11T00:20:40.152Z,4.60
2018-09-11T00:23:09.352Z,4.27
2018-09-11T00:25:37.450Z,4.40
2018-09-11T00:28:05.581Z,4.50
2018-09-11T00:30:33.715Z,4.40
2018-09-11T00:33:01.809Z,4.47
2018-09-11T00:35:29.887Z,4.50
2018-09-11T00:37:57.963Z,4.53
2018-09-11T00:40:26.644Z,4.58
2018-09-11T00:42:54.815Z,4.10
2018-09-11T00:45:22.965Z,3.87
2018-09-11T00:47:51.033Z,4.60
2018-09-11T00:50:19.109Z,5.40
2018-09-11T00:52:47.212Z,4.62
2018-09-11T00:55:15.399Z,5.03
2018-09-11T00:57:44.225Z,4.70
2018-09-11T01:00:12.436Z,4.80
2018-09-11T01:02:40.524Z,4.90
2018-09-11T01:05:08.619Z,5.00
2018-09-11T01:07:36.705Z,4.90
2018-09-11T01:10:06.540Z,4.83
2018-09-11T01:12:35.699Z,4.93
2018-09-11T01:15:04.463Z,5.45
2018-09-11T01:17:32.981Z,6.37
2018-09-11T01:20:01.075Z,4.75
2018-09-11T01:22:29.164Z,4.50
2018-09-11T01:24:57.240Z,4.70
2018-09-11T01:27:25.783Z,4.80
2018-09-11T01:29:54.465Z,4.93
2018-09-11T01:32:22.584Z,5.10
2018-09-11T01:34:50.675Z,4.73
2018-09-11T01:37:18.751Z,4.80
2018-09-11T01:39:46.835Z,4.80
2018-09-11T01:42:14.939Z,4.65
2018-09-11T01:44:43.079Z,4.50
2018-09-11T01:47:12.532Z,4.45
2018-09-11T01:49:40.678Z,4.50
2018-09-11T01:52:08.755Z,4.47
2018-09-11T01:54:36.843Z,4.57
2018-09-11T01:57:05.152Z,4.70
2018-09-11T01:59:34.428Z,4.50
2018-09-11T02:02:02.548Z,4.80
2018-09-11T02:04:30.643Z,5.33
2018-09-11T02:06:58.910Z,4.80
2018-09-11T02:09:28.425Z,4.45
2018-09-11T02:11:56.532Z,4.37
2018-09-11T02:14:24.763Z,4.80
2018-09-11T02:16:52.867Z,4.83
2018-09-11T02:19:20.959Z,4.63
2018-09-11T02:21:49.045Z,4.75
2018-09-11T02:24:17.116Z,4.30
2018-09-11T02:26:45.318Z,5.47
2018-09-11T02:29:14.392Z,5.20
2018-09-11T02:31:42.944Z,4.90
2018-09-11T02:34:11.022Z,4.80
2018-09-11T02:36:39.088Z,5.50
2018-09-11T02:39:09.342Z,5.17
2018-09-11T02:41:37.555Z,5.37
2018-09-11T02:44:06.105Z,5.53
2018-09-11T02:46:34.845Z,5.53
2018-09-11T02:49:03.023Z,4.77
2018-09-11T02:51:31.108Z,4.63
2018-09-11T02:53:59.207Z,6.03
2018-09-11T02:56:27.416Z,5.73
2018-09-11T02:58:55.520Z,6.27
2018-09-11T03:01:24.460Z,7.07
2018-09-11T03:03:52.647Z,6.37
2018-09-11T03:06:20.928Z,5.62
2018-09-11T03:08:49.201Z,6.10
2018-09-11T03:11:18.607Z,6.60
2018-09-11T03:13:46.703Z,6.43
2018-09-11T03:16:15.296Z,5.93
2018-09-11T03:18:43.742Z,6.10
2018-09-11T03:21:11.836Z,5.90
2018-09-11T03:23:39.964Z,5.70
2018-09-11T03:26:08.091Z,6.23
2018-09-11T03:28:36.243Z,6.35
2018-09-11T03:31:04.427Z,6.00
2018-09-11T03:33:34.530Z,6.28
2018-09-11T03:36:02.700Z,6.00
2018-09-11T03:38:30.784Z,6.20
2018-09-11T03:40:58.888Z,6.43
2018-09-11T03:43:27.017Z,6.93
2018-09-11T03:45:55.129Z,6.72
2018-09-11T03:48:23.756Z,6.27
2018-09-11T03:50:52.183Z,6.10
2018-09-11T03:53:20.298Z,5.87
2018-09-11T03:55:48.994Z,5.93
2018-09-11T03:58:18.039Z,6.30
2018-09-11T04:00:46.245Z,6.37
2018-09-11T04:03:14.264Z,6.40
2018-09-11T04:05:42.341Z,6.40
2018-09-11T04:08:10.447Z,6.60
2018-09-11T04:10:38.586Z,7.60
2018-09-11T04:13:06.685Z,6.07
2018-09-11T04:15:34.834Z,6.43
2018-09-11T04:18:03.022Z,6.07
2018-09-11T04:20:31.157Z,6.00
2018-09-11T04:22:59.263Z,6.30
2018-09-11T04:25:27.390Z,6.65
2018-09-11T04:27:55.450Z,6.67
2018-09-11T04:30:23.640Z,6.03
2018-09-11T04:32:51.744Z,6.63
2018-09-11T04:35:20.551Z,6.23
2018-09-11T04:37:48.695Z,9.13
2018-09-11T04:40:16.801Z,7.20
2018-09-11T04:42:45.955Z,6.37
2018-09-11T04:45:14.139Z,5.90
2018-09-11T04:47:42.220Z,5.95
2018-09-11T04:50:10.328Z,6.37
2018-09-11T04:52:40.634Z,6.67
2018-09-11T04:55:08.738Z,6.47
2018-09-11T04:57:39.068Z,5.78
2018-09-11T05:00:07.487Z,15.53
2018-09-11T05:02:35.635Z,7.23
2018-09-11T05:05:05.010Z,6.43
2018-09-11T05:07:33.144Z,5.80
2018-09-11T05:10:01.255Z,5.77
2018-09-11T05:12:29.380Z,6.23
2018-09-11T05:14:57.483Z,5.50
2018-09-11T05:17:26.702Z,6.10
2018-09-11T05:19:56.700Z,6.10
2018-09-11T05:22:24.791Z,5.83
2018-09-11T05:24:53.036Z,6.20
2018-09-11T05:27:21.286Z,6.17
2018-09-11T05:29:49.927Z,6.13
2018-09-11T05:32:18.024Z,6.00
2018-09-11T05:34:46.103Z,5.87
2018-09-11T05:37:14.773Z,5.67
2018-09-11T05:39:42.860Z,5.60
2018-09-11T05:42:10.936Z,5.50
2018-09-11T05:44:39.007Z,5.40
2018-09-11T05:47:07.173Z,5.60
2018-09-11T05:49:35.238Z,5.67
2018-09-11T05:52:03.928Z,4.90
2018-09-11T05:54:32.557Z,5.60
2018-09-11T05:57:00.626Z,5.23
2018-09-11T05:59:28.887Z,5.13
2018-09-11T06:01:56.998Z,4.80
2018-09-11T06:04:25.075Z,4.97
2018-09-11T06:06:53.428Z,5.10
2018-09-11T06:09:21.510Z,4.97
2018-09-11T06:11:49.651Z,4.77
2018-09-11T06:14:17.907Z,4.53
2018-09-11T06:16:45.983Z,4.15
2018-09-11T06:19:14.140Z,3.60
2018-09-11T06:21:44.172Z,4.15
2018-09-11T06:24:12.241Z,3.70
2018-09-11T06:26:40.326Z,3.40
2018-09-11T06:29:09.272Z,4.00
2018-09-11T06:31:41.455Z,3.70
2018-09-11T06:34:09.528Z,3.67
2018-09-11T06:36:38.148Z,3.60
2018-09-11T06:39:07.982Z,4.42
2018-09-11T06:41:36.233Z,3.87
2018-09-11T06:44:04.987Z,3.93
2018-09-11T06:46:33.499Z,4.13
2018-09-11T06:49:02.286Z,4.17
2018-09-11T06:51:31.076Z,3.83
2018-09-11T06:53:59.192Z,4.07
2018-09-11T06:56:27.259Z,4.45
2018-09-11T06:58:55.343Z,4.10
2018-09-11T07:01:23.915Z,3.87
2018-09-11T07:03:52.149Z,4.17
2018-09-11T07:06:20.380Z,3.90
2018-09-11T07:08:48.911Z,4.20
2018-09-11T07:11:17.008Z,4.00
2018-09-11T07:13:45.080Z,3.93
2018-09-11T07:16:13.187Z,3.60
2018-09-11T07:18:41.280Z,4.35
2018-09-11T07:21:09.353Z,3.70
2018-09-11T07:23:37.440Z,3.80
2018-09-11T07:26:05.852Z,3.52
2018-09-11T07:28:35.519Z,4.20
2018-09-11T07:31:03.783Z,3.83
2018-09-11T07:33:32.096Z,3.27
2018-09-11T07:36:00.159Z,3.50
2018-09-11T07:38:28.315Z,3.50
2018-09-11T07:40:56.400Z,3.40
2018-09-11T07:43:25.157Z,3.83
2018-09-11T07:45:57.143Z,3.22
2018-09-11T07:48:43.359Z,2.93
2018-09-11T07:51:11.435Z,3.23
2018-09-11T07:53:40.030Z,3.00
2018-09-11T07:56:08.202Z,2.80
2018-09-11T07:58:36.291Z,3.30
2018-09-11T08:01:05.355Z,2.80
2018-09-11T08:03:34.407Z,2.70
2018-09-11T08:06:03.491Z,2.57
2018-09-11T08:08:31.928Z,2.60
2018-09-11T08:11:00.003Z,2.50
2018-09-11T08:13:28.076Z,2.60
2018-09-11T08:15:56.171Z,2.30
2018-09-11T08:18:24.735Z,2.77
2018-09-11T08:20:53.106Z,2.53
2018-09-11T08:23:21.417Z,2.43
2018-09-11T08:25:49.657Z,2.60
2018-09-11T08:28:18.646Z,2.60
2018-09-11T08:30:46.717Z,2.73
2018-09-11T08:33:14.800Z,2.47
2018-09-11T08:35:43.184Z,2.55
2018-09-11T08:38:11.472Z,2.60
2018-09-11T08:40:39.570Z,2.27
2018-09-11T08:43:07.619Z,2.33
2018-09-11T08:45:35.684Z,2.57
2018-09-11T08:48:04.408Z,2.40
2018-09-11T08:50:33.444Z,2.10
2018-09-11T08:53:04.144Z,2.30
2018-09-11T08:55:32.432Z,2.47
2018-09-11T08:58:00.511Z,2.40
2018-09-11T09:00:28.690Z,2.37
2018-09-11T09:02:56.796Z,2.23
2018-09-11T09:05:24.843Z,2.60
2018-09-11T09:07:53.511Z,2.70
2018-09-11T09:10:21.592Z,2.37
2018-09-11T09:12:49.686Z,2.30
2018-09-11T09:15:17.817Z,2.10
2018-09-11T09:17:45.907Z,2.27
2018-09-11T09:20:14.166Z,2.12
2018-09-11T09:22:42.250Z,2.10
2018-09-11T09:25:11.361Z,1.95
2018-09-11T09:27:39.530Z,2.20
2018-09-11T09:30:08.920Z,2.47
2018-09-11T09:32:36.995Z,2.47
2018-09-11T09:35:05.209Z,2.20
2018-09-11T09:37:33.296Z,1.90
2018-09-11T09:40:01.401Z,1.80
2018-09-11T09:42:29.625Z,2.15
2018-09-11T09:44:58.111Z,2.07
2018-09-11T09:47:26.192Z,2.00
2018-09-11T09:49:54.421Z,2.13
2018-09-11T09:52:22.869Z,2.00
2018-09-11T09:54:50.936Z,2.23
2018-09-11T09:57:19.016Z,2.10
2018-09-11T09:59:47.112Z,2.10
2018-09-11T10:02:23.757Z,2.20
2018-09-11T10:04:52.620Z,2.00
2018-09-11T10:07:21.407Z,2.30
2018-09-11T10:09:51.060Z,2.17
2018-09-11T10:12:19.207Z,2.10
2018-09-11T10:14:47.324Z,2.12
2018-09-11T10:17:15.368Z,2.10
2018-09-11T10:19:44.563Z,2.10
2018-09-11T10:22:12.943Z,1.90
2018-09-11T10:24:41.040Z,2.20
2018-09-11T10:27:09.378Z,1.80
2018-09-11T10:29:37.476Z,1.70
2018-09-11T10:32:05.564Z,1.80
2018-09-11T10:34:34.442Z,1.60
2018-09-11T10:37:06.137Z,1.70
2018-09-11T10:39:35.000Z,1.70
2018-09-11T10:42:03.066Z,1.70
2018-09-11T10:44:31.136Z,1.93
2018-09-11T10:46:59.195Z,2.00
2018-09-11T10:49:27.274Z,1.60
2018-09-11T10:51:55.482Z,2.20
2018-09-11T10:54:23.447Z,1.50
2018-09-11T10:56:51.568Z,1.90
2018-09-11T10:59:24.881Z,1.87
2018-09-11T11:01:53.134Z,1.80
2018-09-11T11:04:23.171Z,1.70
2018-09-11T11:06:51.276Z,1.70
2018-09-11T11:09:20.000Z,1.60
2018-09-11T11:11:48.290Z,1.83
2018-09-11T11:14:16.379Z,2.07
2018-09-11T11:16:44.614Z,1.87
2018-09-11T11:19:12.872Z,1.80
2018-09-11T11:21:42.281Z,1.60
2018-09-11T11:24:10.340Z,1.83
2018-09-11T11:26:38.429Z,2.10
2018-09-11T11:29:06.517Z,1.80
